createdAt,value
2022-10-16T00:00:30.903Z,1
2022-10-16T00:10:30.765Z,1
2022-10-16T00:20:30.707Z,1
2022-10-16T00:30:30.640Z,1
2022-10-16T00:40:30.596Z,1
2022-10-16T00:50:30.483Z,1
2022-10-16T01:00:30.443Z,1
2022-10-16T01:10:30.353Z,1
2022-10-16T01:20:30.285Z,1
2022-10-16T01:30:30.211Z,1
2022-10-16T01:40:30.135Z,1
2022-10-16T01:50:30.046Z,1
2022-10-16T02:00:30.016Z,1
2022-10-16T02:20:29.830Z,1
2022-10-16T02:30:29.769Z,1
2022-10-16T02:40:29.710Z,1
2022-10-16T02:50:29.631Z,1
2022-10-16T03:00:29.609Z,1
2022-10-16T03:10:29.468Z,1
2022-10-16T03:20:29.420Z,1
2022-10-16T03:30:29.359Z,1
2022-10-16T03:40:29.259Z,1
2022-10-16T03:50:29.194Z,1
2022-10-16T04:00:29.142Z,1
2022-10-16T04:10:29.057Z,2
2022-10-16T04:20:28.987Z,9
2022-10-16T04:30:28.926Z,18
2022-10-16T04:40:28.855Z,21
2022-10-16T04:50:28.795Z,24
2022-10-16T05:00:28.699Z,19
2022-10-16T05:10:28.645Z,19
2022-10-16T05:20:28.568Z,22
2022-10-16T05:30:28.498Z,32
2022-10-16T05:40:28.455Z,35
2022-10-16T05:50:28.367Z,40
2022-10-16T05:51:49.913Z,47
2022-10-16T06:01:49.425Z,48
2022-10-16T06:11:49.364Z,52
2022-10-16T06:21:49.302Z,69
2022-10-16T06:31:49.224Z,79
2022-10-16T06:41:49.192Z,67
2022-10-16T06:51:49.073Z,70
2022-10-16T07:01:49.055Z,65
2022-10-16T07:11:48.963Z,66
2022-10-16T07:21:48.882Z,69
2022-10-16T07:31:48.800Z,33
2022-10-16T07:41:48.765Z,39
2022-10-16T07:51:48.687Z,45
2022-10-16T08:01:48.686Z,44
2022-10-16T08:11:48.542Z,44
2022-10-16T08:21:48.473Z,47
2022-10-16T08:31:48.395Z,68
2022-10-16T08:41:48.302Z,71
2022-10-16T08:51:48.267Z,74
2022-10-16T09:01:48.210Z,76
2022-10-16T09:11:48.072Z,81
2022-10-16T09:21:48.100Z,79
2022-10-16T09:31:47.948Z,70
2022-10-16T09:41:47.974Z,75
2022-10-16T09:51:47.801Z,77
2022-10-16T10:01:47.746Z,69
2022-10-16T10:11:47.743Z,61
2022-10-16T10:21:47.602Z,59
2022-10-16T10:31:47.522Z,65
2022-10-16T10:41:47.446Z,53
2022-10-16T10:51:47.387Z,60
2022-10-16T11:01:47.463Z,73
2022-10-16T11:11:47.264Z,80
2022-10-16T11:21:47.244Z,73
2022-10-16T11:31:47.125Z,88
2022-10-16T11:41:47.052Z,99
2022-10-16T11:51:46.968Z,99
2022-10-16T12:01:46.901Z,98
2022-10-16T12:11:46.858Z,99
2022-10-16T12:21:46.777Z,99
2022-10-16T12:31:54.775Z,99
2022-10-16T12:41:46.622Z,99
2022-10-16T12:51:46.720Z,99
2022-10-16T13:01:46.525Z,99
2022-10-16T13:11:46.428Z,99
2022-10-16T13:21:46.360Z,99
2022-10-16T13:31:46.293Z,88
2022-10-16T13:41:46.224Z,81
2022-10-16T13:51:46.143Z,87
2022-10-16T14:01:46.172Z,94
2022-10-16T14:11:46.019Z,97
2022-10-16T14:21:45.929Z,85
2022-10-16T14:31:45.990Z,75
2022-10-16T14:41:45.797Z,81
2022-10-16T14:51:45.775Z,79
2022-10-16T15:01:45.650Z,78
2022-10-16T15:11:45.593Z,94
2022-10-16T15:21:45.516Z,93
2022-10-16T15:31:45.449Z,95
2022-10-16T15:41:45.406Z,88
2022-10-16T15:51:45.317Z,90
2022-10-16T16:01:45.331Z,93
2022-10-16T16:11:45.181Z,88
2022-10-16T16:21:45.116Z,91
2022-10-16T16:31:45.021Z,96
2022-10-16T16:41:44.956Z,99
2022-10-16T16:51:44.909Z,95
2022-10-16T17:01:44.961Z,95
2022-10-16T17:11:44.767Z,99
2022-10-16T17:21:44.705Z,99
2022-10-16T17:31:44.611Z,99
2022-10-16T17:41:44.549Z,99
2022-10-16T17:51:44.477Z,99
2022-10-16T18:01:44.516Z,99
2022-10-16T18:11:44.338Z,99
2022-10-16T18:21:44.292Z,99
2022-10-16T18:31:44.191Z,99
2022-10-16T18:41:44.135Z,99
2022-10-16T18:51:44.047Z,99
2022-10-16T19:01:44.149Z,99
2022-10-16T19:11:43.992Z,99
2022-10-16T19:21:43.986Z,99
2022-10-16T19:31:43.901Z,99
2022-10-16T19:41:43.689Z,99
2022-10-16T19:51:43.652Z,99
2022-10-16T20:01:43.667Z,99
2022-10-16T20:11:43.505Z,99
2022-10-16T20:21:43.416Z,99
2022-10-16T20:31:43.349Z,99
2022-10-16T20:41:43.310Z,97
2022-10-16T20:51:43.211Z,95
2022-10-16T21:01:43.212Z,98
2022-10-16T21:11:43.064Z,87
2022-10-16T21:21:42.997Z,55
2022-10-16T21:31:42.929Z,42
2022-10-16T21:41:42.880Z,55
2022-10-16T21:51:42.793Z,51
2022-10-16T22:01:42.856Z,31
2022-10-16T22:11:42.637Z,22
2022-10-16T22:21:42.574Z,20
2022-10-16T22:31:42.499Z,13
2022-10-16T22:41:42.424Z,8
2022-10-16T22:51:42.557Z,7
2022-10-16T23:01:42.284Z,2
2022-10-16T23:11:42.199Z,3
2022-10-16T23:21:42.149Z,7
2022-10-16T23:31:42.071Z,1
2022-10-16T23:41:42.002Z,1
2022-10-16T23:51:41.925Z,1
